Аэропорт
Мирный (UERR)

 UERR / MJZ
ЗЦ Хабаровск
Якутск (UEEE)
Якутск (UEEE)
 62.53470, 114.03900  / 1156 ft

 UERR 201700Z 22002MPS 9999 -SHSN SCT023CB M14/M15 Q1012 R25/390237 NOSIG RMK QFE728
 TAF UERR 201400Z 2015/2115 23003MPS 9999 SCT020 OVC100 TEMPO 2015/2018 -SN SCT007 OVC100
UERR_j_0220
показать схемы
Название сценария Тип сценария Flight Simulator 9 Flight Simulator X Prepar3D v2 Prepar3D v3 Prepar3D v4 xPlane
UERR2013 X-plane бесплатный


2020 © VATRUS division (Privacy Policy)